Terminal Aerodrome Forecast
Issued by NWS

Home | Current Version | Previous Version | Text Only | Print | Product List | Glossary On
Versions: 1 2 3 4 5 6 7 8 9 10 11 12 13 14 15 16 17
000
FTUS43 KDMX 212345
TAFFOD
TAF
KFOD 212345Z 2200/2224 05012KT 1SM -DZ BR OVC004
      TEMPO 2200/2204 4SM -DZ BR
     FM221000 05015G25KT 2SM -RA BR OVC005
     FM221300 05017G26KT 1SM RASN BR OVC004 WS020/05045KT
     FM221600 03014G22KT 1SM -SN BLSN OVC003
     FM222100 36015G22KT 2SM -FZRA OVC006=

USA.gov is the U.S. government's official web portal to all federal, state and local government web resources and services.